<?xml version="1.0" encoding="UTF-8" standalone="no" ?>
<gpx xmlns="http://www.topografix.com/GPX/1/1" xmlns:xsi="http://www.w3.org/2001/XMLSchema-instance" xsi:schemaLocation="http://www.topografix.com/GPX/1/1 http://www.topografix.com/GPX/1/1/gpx.xsd" version="1.1" creator="VisuGPX - https://www.visugpx.com">
  <metadata>
    <name>La Moine-Ribou</name>
  </metadata>
  <trk>
    <name><![CDATA[RIBO1-16006096]]></name>
    <trkseg>
      <trkpt lat="47.04583" lon="-0.8703">
        <ele>76</ele>
        <time>2023-01-05T08:14:11Z</time>
      </trkpt>
      <trkpt lat="47.04588" lon="-0.87033">
        <ele>75</ele>
        <time>2023-01-05T08:14:18Z</time>
      </trkpt>
      <trkpt lat="47.04581" lon="-0.87022">
        <ele>76</ele>
        <time>2023-01-05T08:14:32Z</time>
      </trkpt>
      <trkpt lat="47.04575" lon="-0.86999">
        <ele>77</ele>
        <time>2023-01-05T08:14:54Z</time>
      </trkpt>
      <trkpt lat="47.04562" lon="-0.86911">
        <ele>78</ele>
        <time>2023-01-05T08:16:16Z</time>
      </trkpt>
      <trkpt lat="47.04556" lon="-0.86869">
        <ele>80</ele>
        <time>2023-01-05T08:16:55Z</time>
      </trkpt>
      <trkpt lat="47.0455" lon="-0.86804">
        <ele>81</ele>
        <time>2023-01-05T08:17:55Z</time>
      </trkpt>
      <trkpt lat="47.0455" lon="-0.86796">
        <ele>80</ele>
        <time>2023-01-05T08:18:02Z</time>
      </trkpt>
      <trkpt lat="47.0455" lon="-0.86787">
        <ele>80</ele>
        <time>2023-01-05T08:18:10Z</time>
      </trkpt>
      <trkpt lat="47.04548" lon="-0.86699">
        <ele>80</ele>
        <time>2023-01-05T08:19:30Z</time>
      </trkpt>
      <trkpt lat="47.04551" lon="-0.867">
        <ele>80</ele>
        <time>2023-01-05T08:19:34Z</time>
      </trkpt>
      <trkpt lat="47.04556" lon="-0.86698">
        <ele>79</ele>
        <time>2023-01-05T08:19:41Z</time>
      </trkpt>
      <trkpt lat="47.04569" lon="-0.86686">
        <ele>79</ele>
        <time>2023-01-05T08:20:02Z</time>
      </trkpt>
      <trkpt lat="47.04577" lon="-0.86685">
        <ele>78</ele>
        <time>2023-01-05T08:20:13Z</time>
      </trkpt>
      <trkpt lat="47.04584" lon="-0.86689">
        <ele>78</ele>
        <time>2023-01-05T08:20:23Z</time>
      </trkpt>
      <trkpt lat="47.04596" lon="-0.86702">
        <ele>77</ele>
        <time>2023-01-05T08:20:43Z</time>
      </trkpt>
      <trkpt lat="47.04606" lon="-0.86698">
        <ele>77</ele>
        <time>2023-01-05T08:20:56Z</time>
      </trkpt>
      <trkpt lat="47.0462" lon="-0.86692">
        <ele>76</ele>
        <time>2023-01-05T08:21:16Z</time>
      </trkpt>
      <trkpt lat="47.04628" lon="-0.86695">
        <ele>76</ele>
        <time>2023-01-05T08:21:27Z</time>
      </trkpt>
      <trkpt lat="47.04633" lon="-0.86694">
        <ele>75</ele>
        <time>2023-01-05T08:21:34Z</time>
      </trkpt>
      <trkpt lat="47.04637" lon="-0.86689">
        <ele>75</ele>
        <time>2023-01-05T08:21:41Z</time>
      </trkpt>
      <trkpt lat="47.04639" lon="-0.86677">
        <ele>75</ele>
        <time>2023-01-05T08:21:52Z</time>
      </trkpt>
      <trkpt lat="47.04641" lon="-0.86648">
        <ele>75</ele>
        <time>2023-01-05T08:22:18Z</time>
      </trkpt>
      <trkpt lat="47.04642" lon="-0.86612">
        <ele>74</ele>
        <time>2023-01-05T08:22:51Z</time>
      </trkpt>
      <trkpt lat="47.04644" lon="-0.86603">
        <ele>74</ele>
        <time>2023-01-05T08:23:00Z</time>
      </trkpt>
      <trkpt lat="47.0465" lon="-0.86593">
        <ele>74</ele>
        <time>2023-01-05T08:23:12Z</time>
      </trkpt>
      <trkpt lat="47.04656" lon="-0.86591">
        <ele>74</ele>
        <time>2023-01-05T08:23:20Z</time>
      </trkpt>
      <trkpt lat="47.04675" lon="-0.86594">
        <ele>74</ele>
        <time>2023-01-05T08:23:46Z</time>
      </trkpt>
      <trkpt lat="47.04681" lon="-0.86593">
        <ele>74</ele>
        <time>2023-01-05T08:23:54Z</time>
      </trkpt>
      <trkpt lat="47.04686" lon="-0.86587">
        <ele>74</ele>
        <time>2023-01-05T08:24:02Z</time>
      </trkpt>
      <trkpt lat="47.04695" lon="-0.86546">
        <ele>74</ele>
        <time>2023-01-05T08:24:41Z</time>
      </trkpt>
      <trkpt lat="47.04696" lon="-0.86528">
        <ele>73</ele>
        <time>2023-01-05T08:24:58Z</time>
      </trkpt>
      <trkpt lat="47.0469" lon="-0.86479">
        <ele>73</ele>
        <time>2023-01-05T08:25:43Z</time>
      </trkpt>
      <trkpt lat="47.0469" lon="-0.86469">
        <ele>73</ele>
        <time>2023-01-05T08:25:52Z</time>
      </trkpt>
      <trkpt lat="47.04694" lon="-0.86457">
        <ele>73</ele>
        <time>2023-01-05T08:26:04Z</time>
      </trkpt>
      <trkpt lat="47.04695" lon="-0.86441">
        <ele>74</ele>
        <time>2023-01-05T08:26:19Z</time>
      </trkpt>
      <trkpt lat="47.04692" lon="-0.86437">
        <ele>74</ele>
        <time>2023-01-05T08:26:24Z</time>
      </trkpt>
      <trkpt lat="47.04686" lon="-0.86423">
        <ele>74</ele>
        <time>2023-01-05T08:26:39Z</time>
      </trkpt>
      <trkpt lat="47.04678" lon="-0.86419">
        <ele>73</ele>
        <time>2023-01-05T08:26:51Z</time>
      </trkpt>
      <trkpt lat="47.04658" lon="-0.86417">
        <ele>73</ele>
        <time>2023-01-05T08:27:17Z</time>
      </trkpt>
      <trkpt lat="47.04629" lon="-0.86408">
        <ele>74</ele>
        <time>2023-01-05T08:27:57Z</time>
      </trkpt>
      <trkpt lat="47.04565" lon="-0.8638">
        <ele>74</ele>
        <time>2023-01-05T08:29:26Z</time>
      </trkpt>
      <trkpt lat="47.0456" lon="-0.8638">
        <ele>74</ele>
        <time>2023-01-05T08:29:33Z</time>
      </trkpt>
      <trkpt lat="47.04522" lon="-0.86423">
        <ele>74</ele>
        <time>2023-01-05T08:30:37Z</time>
      </trkpt>
      <trkpt lat="47.04501" lon="-0.86437">
        <ele>75</ele>
        <time>2023-01-05T08:31:08Z</time>
      </trkpt>
      <trkpt lat="47.04497" lon="-0.86437">
        <ele>75</ele>
        <time>2023-01-05T08:31:13Z</time>
      </trkpt>
      <trkpt lat="47.04487" lon="-0.86436">
        <ele>75</ele>
        <time>2023-01-05T08:31:26Z</time>
      </trkpt>
      <trkpt lat="47.04482" lon="-0.86434">
        <ele>75</ele>
        <time>2023-01-05T08:31:33Z</time>
      </trkpt>
      <trkpt lat="47.04478" lon="-0.86429">
        <ele>75</ele>
        <time>2023-01-05T08:31:40Z</time>
      </trkpt>
      <trkpt lat="47.04471" lon="-0.86413">
        <ele>74</ele>
        <time>2023-01-05T08:31:57Z</time>
      </trkpt>
      <trkpt lat="47.04467" lon="-0.86409">
        <ele>74</ele>
        <time>2023-01-05T08:32:04Z</time>
      </trkpt>
      <trkpt lat="47.04447" lon="-0.86409">
        <ele>75</ele>
        <time>2023-01-05T08:32:31Z</time>
      </trkpt>
      <trkpt lat="47.04421" lon="-0.86416">
        <ele>75</ele>
        <time>2023-01-05T08:33:06Z</time>
      </trkpt>
      <trkpt lat="47.04416" lon="-0.86419">
        <ele>75</ele>
        <time>2023-01-05T08:33:13Z</time>
      </trkpt>
      <trkpt lat="47.04398" lon="-0.86434">
        <ele>76</ele>
        <time>2023-01-05T08:33:41Z</time>
      </trkpt>
      <trkpt lat="47.04389" lon="-0.86436">
        <ele>77</ele>
        <time>2023-01-05T08:33:53Z</time>
      </trkpt>
      <trkpt lat="47.04378" lon="-0.86427">
        <ele>76</ele>
        <time>2023-01-05T08:34:10Z</time>
      </trkpt>
      <trkpt lat="47.04361" lon="-0.86418">
        <ele>76</ele>
        <time>2023-01-05T08:34:34Z</time>
      </trkpt>
      <trkpt lat="47.04352" lon="-0.86418">
        <ele>76</ele>
        <time>2023-01-05T08:34:46Z</time>
      </trkpt>
      <trkpt lat="47.0433" lon="-0.86426">
        <ele>77</ele>
        <time>2023-01-05T08:35:16Z</time>
      </trkpt>
      <trkpt lat="47.04315" lon="-0.86427">
        <ele>77</ele>
        <time>2023-01-05T08:35:36Z</time>
      </trkpt>
      <trkpt lat="47.04311" lon="-0.86427">
        <ele>78</ele>
        <time>2023-01-05T08:35:41Z</time>
      </trkpt>
      <trkpt lat="47.04296" lon="-0.86421">
        <ele>78</ele>
        <time>2023-01-05T08:36:02Z</time>
      </trkpt>
      <trkpt lat="47.04289" lon="-0.86412">
        <ele>77</ele>
        <time>2023-01-05T08:36:15Z</time>
      </trkpt>
      <trkpt lat="47.0428" lon="-0.86409">
        <ele>78</ele>
        <time>2023-01-05T08:36:27Z</time>
      </trkpt>
      <trkpt lat="47.04289" lon="-0.86412">
        <ele>77</ele>
        <time>2023-01-05T08:36:39Z</time>
      </trkpt>
      <trkpt lat="47.0426" lon="-0.86352">
        <ele>75</ele>
        <time>2023-01-05T08:37:46Z</time>
      </trkpt>
      <trkpt lat="47.04247" lon="-0.86345">
        <ele>75</ele>
        <time>2023-01-05T08:38:05Z</time>
      </trkpt>
      <trkpt lat="47.04244" lon="-0.86344">
        <ele>75</ele>
        <time>2023-01-05T08:38:09Z</time>
      </trkpt>
      <trkpt lat="47.04232" lon="-0.8635">
        <ele>75</ele>
        <time>2023-01-05T08:38:26Z</time>
      </trkpt>
      <trkpt lat="47.04206" lon="-0.86376">
        <ele>76</ele>
        <time>2023-01-05T08:39:08Z</time>
      </trkpt>
      <trkpt lat="47.04194" lon="-0.86381">
        <ele>76</ele>
        <time>2023-01-05T08:39:24Z</time>
      </trkpt>
      <trkpt lat="47.04183" lon="-0.86374">
        <ele>76</ele>
        <time>2023-01-05T08:39:40Z</time>
      </trkpt>
      <trkpt lat="47.04177" lon="-0.86359">
        <ele>75</ele>
        <time>2023-01-05T08:39:56Z</time>
      </trkpt>
      <trkpt lat="47.04176" lon="-0.86335">
        <ele>74</ele>
        <time>2023-01-05T08:40:18Z</time>
      </trkpt>
      <trkpt lat="47.04176" lon="-0.8633">
        <ele>74</ele>
        <time>2023-01-05T08:40:22Z</time>
      </trkpt>
      <trkpt lat="47.04162" lon="-0.86308">
        <ele>74</ele>
        <time>2023-01-05T08:40:50Z</time>
      </trkpt>
      <trkpt lat="47.04134" lon="-0.86272">
        <ele>75</ele>
        <time>2023-01-05T08:41:40Z</time>
      </trkpt>
      <trkpt lat="47.04083" lon="-0.86224">
        <ele>75</ele>
        <time>2023-01-05T08:43:00Z</time>
      </trkpt>
      <trkpt lat="47.0408" lon="-0.86226">
        <ele>75</ele>
        <time>2023-01-05T08:43:05Z</time>
      </trkpt>
      <trkpt lat="47.04051" lon="-0.86239">
        <ele>75</ele>
        <time>2023-01-05T08:43:45Z</time>
      </trkpt>
      <trkpt lat="47.04026" lon="-0.86267">
        <ele>76</ele>
        <time>2023-01-05T08:44:27Z</time>
      </trkpt>
      <trkpt lat="47.04003" lon="-0.86283">
        <ele>76</ele>
        <time>2023-01-05T08:45:01Z</time>
      </trkpt>
      <trkpt lat="47.04001" lon="-0.86282">
        <ele>76</ele>
        <time>2023-01-05T08:45:04Z</time>
      </trkpt>
      <trkpt lat="47.03981" lon="-0.86277">
        <ele>76</ele>
        <time>2023-01-05T08:45:31Z</time>
      </trkpt>
      <trkpt lat="47.03974" lon="-0.86272">
        <ele>76</ele>
        <time>2023-01-05T08:45:41Z</time>
      </trkpt>
      <trkpt lat="47.03964" lon="-0.86269">
        <ele>76</ele>
        <time>2023-01-05T08:45:55Z</time>
      </trkpt>
      <trkpt lat="47.03938" lon="-0.86264">
        <ele>76</ele>
        <time>2023-01-05T08:46:30Z</time>
      </trkpt>
      <trkpt lat="47.03919" lon="-0.86263">
        <ele>76</ele>
        <time>2023-01-05T08:46:55Z</time>
      </trkpt>
      <trkpt lat="47.03909" lon="-0.86253">
        <ele>76</ele>
        <time>2023-01-05T08:47:12Z</time>
      </trkpt>
      <trkpt lat="47.03891" lon="-0.86238">
        <ele>76</ele>
        <time>2023-01-05T08:47:39Z</time>
      </trkpt>
      <trkpt lat="47.03871" lon="-0.86226">
        <ele>77</ele>
        <time>2023-01-05T08:48:08Z</time>
      </trkpt>
      <trkpt lat="47.03824" lon="-0.86202">
        <ele>77</ele>
        <time>2023-01-05T08:49:14Z</time>
      </trkpt>
      <trkpt lat="47.03781" lon="-0.86192">
        <ele>77</ele>
        <time>2023-01-05T08:50:13Z</time>
      </trkpt>
      <trkpt lat="47.03766" lon="-0.86185">
        <ele>77</ele>
        <time>2023-01-05T08:50:34Z</time>
      </trkpt>
      <trkpt lat="47.0376" lon="-0.86183">
        <ele>77</ele>
        <time>2023-01-05T08:50:42Z</time>
      </trkpt>
      <trkpt lat="47.03746" lon="-0.86178">
        <ele>77</ele>
        <time>2023-01-05T08:51:01Z</time>
      </trkpt>
      <trkpt lat="47.03731" lon="-0.86165">
        <ele>77</ele>
        <time>2023-01-05T08:51:24Z</time>
      </trkpt>
      <trkpt lat="47.03721" lon="-0.86145">
        <ele>77</ele>
        <time>2023-01-05T08:51:47Z</time>
      </trkpt>
      <trkpt lat="47.03714" lon="-0.86121">
        <ele>77</ele>
        <time>2023-01-05T08:52:11Z</time>
      </trkpt>
      <trkpt lat="47.03709" lon="-0.86112">
        <ele>77</ele>
        <time>2023-01-05T08:52:21Z</time>
      </trkpt>
      <trkpt lat="47.03699" lon="-0.86095">
        <ele>77</ele>
        <time>2023-01-05T08:52:42Z</time>
      </trkpt>
      <trkpt lat="47.03682" lon="-0.86073">
        <ele>76</ele>
        <time>2023-01-05T08:53:12Z</time>
      </trkpt>
      <trkpt lat="47.03671" lon="-0.86066">
        <ele>76</ele>
        <time>2023-01-05T08:53:28Z</time>
      </trkpt>
      <trkpt lat="47.03656" lon="-0.86063">
        <ele>76</ele>
        <time>2023-01-05T08:53:48Z</time>
      </trkpt>
      <trkpt lat="47.03595" lon="-0.86059">
        <ele>76</ele>
        <time>2023-01-05T08:55:09Z</time>
      </trkpt>
      <trkpt lat="47.03572" lon="-0.86054">
        <ele>76</ele>
        <time>2023-01-05T08:55:41Z</time>
      </trkpt>
      <trkpt lat="47.0357" lon="-0.86058">
        <ele>77</ele>
        <time>2023-01-05T08:55:45Z</time>
      </trkpt>
      <trkpt lat="47.0353" lon="-0.86049">
        <ele>77</ele>
        <time>2023-01-05T08:56:39Z</time>
      </trkpt>
      <trkpt lat="47.03489" lon="-0.86013">
        <ele>76</ele>
        <time>2023-01-05T08:57:43Z</time>
      </trkpt>
      <trkpt lat="47.03483" lon="-0.85934">
        <ele>74</ele>
        <time>2023-01-05T08:58:55Z</time>
      </trkpt>
      <trkpt lat="47.03444" lon="-0.85871">
        <ele>74</ele>
        <time>2023-01-05T09:00:12Z</time>
      </trkpt>
      <trkpt lat="47.03386" lon="-0.85751">
        <ele>76</ele>
        <time>2023-01-05T09:02:26Z</time>
      </trkpt>
      <trkpt lat="47.03337" lon="-0.85742">
        <ele>75</ele>
        <time>2023-01-05T09:03:32Z</time>
      </trkpt>
      <trkpt lat="47.03333" lon="-0.85718">
        <ele>76</ele>
        <time>2023-01-05T09:03:55Z</time>
      </trkpt>
      <trkpt lat="47.03341" lon="-0.8567">
        <ele>78</ele>
        <time>2023-01-05T09:04:40Z</time>
      </trkpt>
      <trkpt lat="47.03336" lon="-0.85643">
        <ele>78</ele>
        <time>2023-01-05T09:05:05Z</time>
      </trkpt>
      <trkpt lat="47.03316" lon="-0.8563">
        <ele>78</ele>
        <time>2023-01-05T09:05:34Z</time>
      </trkpt>
      <trkpt lat="47.03303" lon="-0.85635">
        <ele>78</ele>
        <time>2023-01-05T09:05:52Z</time>
      </trkpt>
      <trkpt lat="47.03251" lon="-0.85586">
        <ele>79</ele>
        <time>2023-01-05T09:07:15Z</time>
      </trkpt>
      <trkpt lat="47.0324" lon="-0.85553">
        <ele>82</ele>
        <time>2023-01-05T09:07:48Z</time>
      </trkpt>
      <trkpt lat="47.03273" lon="-0.85561">
        <ele>82</ele>
        <time>2023-01-05T09:08:33Z</time>
      </trkpt>
      <trkpt lat="47.03255" lon="-0.85537">
        <ele>84</ele>
        <time>2023-01-05T09:09:05Z</time>
      </trkpt>
      <trkpt lat="47.03236" lon="-0.85495">
        <ele>87</ele>
        <time>2023-01-05T09:09:51Z</time>
      </trkpt>
      <trkpt lat="47.0329" lon="-0.85252">
        <ele>97</ele>
        <time>2023-01-05T09:13:43Z</time>
      </trkpt>
      <trkpt lat="47.03187" lon="-0.85198">
        <ele>98</ele>
        <time>2023-01-05T09:16:09Z</time>
      </trkpt>
      <trkpt lat="47.03113" lon="-0.8518">
        <ele>97</ele>
        <time>2023-01-05T09:17:50Z</time>
      </trkpt>
      <trkpt lat="47.03065" lon="-0.85195">
        <ele>95</ele>
        <time>2023-01-05T09:18:55Z</time>
      </trkpt>
      <trkpt lat="47.02992" lon="-0.85192">
        <ele>92</ele>
        <time>2023-01-05T09:20:32Z</time>
      </trkpt>
      <trkpt lat="47.02902" lon="-0.85186">
        <ele>92</ele>
        <time>2023-01-05T09:22:33Z</time>
      </trkpt>
      <trkpt lat="47.02841" lon="-0.85205">
        <ele>92</ele>
        <time>2023-01-05T09:23:56Z</time>
      </trkpt>
      <trkpt lat="47.0278" lon="-0.8523">
        <ele>91</ele>
        <time>2023-01-05T09:25:20Z</time>
      </trkpt>
      <trkpt lat="47.02625" lon="-0.84869">
        <ele>95</ele>
        <time>2023-01-05T09:31:49Z</time>
      </trkpt>
      <trkpt lat="47.02585" lon="-0.84823">
        <ele>94</ele>
        <time>2023-01-05T09:32:56Z</time>
      </trkpt>
      <trkpt lat="47.02584" lon="-0.84786">
        <ele>92</ele>
        <time>2023-01-05T09:33:30Z</time>
      </trkpt>
      <trkpt lat="47.02608" lon="-0.84801">
        <ele>93</ele>
        <time>2023-01-05T09:34:05Z</time>
      </trkpt>
      <trkpt lat="47.02878" lon="-0.84694">
        <ele>87</ele>
        <time>2023-01-05T09:40:18Z</time>
      </trkpt>
      <trkpt lat="47.02937" lon="-0.84709">
        <ele>87</ele>
        <time>2023-01-05T09:41:38Z</time>
      </trkpt>
      <trkpt lat="47.02982" lon="-0.84707">
        <ele>88</ele>
        <time>2023-01-05T09:42:38Z</time>
      </trkpt>
      <trkpt lat="47.03012" lon="-0.84691">
        <ele>88</ele>
        <time>2023-01-05T09:43:21Z</time>
      </trkpt>
      <trkpt lat="47.03029" lon="-0.84643">
        <ele>88</ele>
        <time>2023-01-05T09:44:10Z</time>
      </trkpt>
      <trkpt lat="47.03071" lon="-0.84632">
        <ele>90</ele>
        <time>2023-01-05T09:45:07Z</time>
      </trkpt>
      <trkpt lat="47.03103" lon="-0.84602">
        <ele>92</ele>
        <time>2023-01-05T09:45:57Z</time>
      </trkpt>
      <trkpt lat="47.03088" lon="-0.84562">
        <ele>91</ele>
        <time>2023-01-05T09:46:39Z</time>
      </trkpt>
      <trkpt lat="47.03159" lon="-0.84466">
        <ele>92</ele>
        <time>2023-01-05T09:48:48Z</time>
      </trkpt>
      <trkpt lat="47.03192" lon="-0.84455">
        <ele>92</ele>
        <time>2023-01-05T09:49:33Z</time>
      </trkpt>
      <trkpt lat="47.03366" lon="-0.84108">
        <ele>91</ele>
        <time>2023-01-05T09:56:05Z</time>
      </trkpt>
      <trkpt lat="47.03449" lon="-0.84232">
        <ele>97</ele>
        <time>2023-01-05T09:58:43Z</time>
      </trkpt>
      <trkpt lat="47.03528" lon="-0.84291">
        <ele>101</ele>
        <time>2023-01-05T10:00:41Z</time>
      </trkpt>
      <trkpt lat="47.03543" lon="-0.84357">
        <ele>102</ele>
        <time>2023-01-05T10:01:44Z</time>
      </trkpt>
      <trkpt lat="47.03555" lon="-0.84464">
        <ele>103</ele>
        <time>2023-01-05T10:03:23Z</time>
      </trkpt>
      <trkpt lat="47.03663" lon="-0.84541">
        <ele>108</ele>
        <time>2023-01-05T10:06:03Z</time>
      </trkpt>
      <trkpt lat="47.03686" lon="-0.84534">
        <ele>109</ele>
        <time>2023-01-05T10:06:35Z</time>
      </trkpt>
      <trkpt lat="47.03726" lon="-0.84493">
        <ele>109</ele>
        <time>2023-01-05T10:07:40Z</time>
      </trkpt>
      <trkpt lat="47.03758" lon="-0.8451">
        <ele>110</ele>
        <time>2023-01-05T10:08:25Z</time>
      </trkpt>
      <trkpt lat="47.03777" lon="-0.8456">
        <ele>111</ele>
        <time>2023-01-05T10:09:17Z</time>
      </trkpt>
      <trkpt lat="47.03813" lon="-0.84547">
        <ele>112</ele>
        <time>2023-01-05T10:10:07Z</time>
      </trkpt>
      <trkpt lat="47.03878" lon="-0.84663">
        <ele>111</ele>
        <time>2023-01-05T10:12:23Z</time>
      </trkpt>
      <trkpt lat="47.03839" lon="-0.8472">
        <ele>110</ele>
        <time>2023-01-05T10:13:37Z</time>
      </trkpt>
      <trkpt lat="47.03873" lon="-0.84808">
        <ele>109</ele>
        <time>2023-01-05T10:15:09Z</time>
      </trkpt>
      <trkpt lat="47.0398" lon="-0.84958">
        <ele>108</ele>
        <time>2023-01-05T10:18:26Z</time>
      </trkpt>
      <trkpt lat="47.04049" lon="-0.84983">
        <ele>109</ele>
        <time>2023-01-05T10:20:01Z</time>
      </trkpt>
      <trkpt lat="47.04223" lon="-0.84921">
        <ele>114</ele>
        <time>2023-01-05T10:24:00Z</time>
      </trkpt>
      <trkpt lat="47.04265" lon="-0.84998">
        <ele>112</ele>
        <time>2023-01-05T10:25:30Z</time>
      </trkpt>
      <trkpt lat="47.04302" lon="-0.85046">
        <ele>111</ele>
        <time>2023-01-05T10:26:36Z</time>
      </trkpt>
      <trkpt lat="47.04385" lon="-0.8505">
        <ele>111</ele>
        <time>2023-01-05T10:28:26Z</time>
      </trkpt>
      <trkpt lat="47.04376" lon="-0.85184">
        <ele>108</ele>
        <time>2023-01-05T10:30:29Z</time>
      </trkpt>
      <trkpt lat="47.04371" lon="-0.85241">
        <ele>106</ele>
        <time>2023-01-05T10:31:21Z</time>
      </trkpt>
      <trkpt lat="47.04355" lon="-0.85286">
        <ele>106</ele>
        <time>2023-01-05T10:32:07Z</time>
      </trkpt>
      <trkpt lat="47.04351" lon="-0.85324">
        <ele>105</ele>
        <time>2023-01-05T10:32:42Z</time>
      </trkpt>
      <trkpt lat="47.04374" lon="-0.85363">
        <ele>102</ele>
        <time>2023-01-05T10:33:29Z</time>
      </trkpt>
      <trkpt lat="47.0438" lon="-0.85413">
        <ele>100</ele>
        <time>2023-01-05T10:34:15Z</time>
      </trkpt>
      <trkpt lat="47.04394" lon="-0.85492">
        <ele>99</ele>
        <time>2023-01-05T10:35:30Z</time>
      </trkpt>
      <trkpt lat="47.04429" lon="-0.85475">
        <ele>100</ele>
        <time>2023-01-05T10:36:19Z</time>
      </trkpt>
      <trkpt lat="47.04465" lon="-0.85483">
        <ele>101</ele>
        <time>2023-01-05T10:37:07Z</time>
      </trkpt>
      <trkpt lat="47.04423" lon="-0.8558">
        <ele>99</ele>
        <time>2023-01-05T10:38:52Z</time>
      </trkpt>
      <trkpt lat="47.04428" lon="-0.85621">
        <ele>99</ele>
        <time>2023-01-05T10:39:30Z</time>
      </trkpt>
      <trkpt lat="47.04455" lon="-0.85615">
        <ele>99</ele>
        <time>2023-01-05T10:40:06Z</time>
      </trkpt>
      <trkpt lat="47.04456" lon="-0.85635">
        <ele>98</ele>
        <time>2023-01-05T10:40:24Z</time>
      </trkpt>
      <trkpt lat="47.04438" lon="-0.85654">
        <ele>98</ele>
        <time>2023-01-05T10:40:54Z</time>
      </trkpt>
      <trkpt lat="47.04422" lon="-0.85683">
        <ele>98</ele>
        <time>2023-01-05T10:41:28Z</time>
      </trkpt>
      <trkpt lat="47.04415" lon="-0.85719">
        <ele>98</ele>
        <time>2023-01-05T10:42:02Z</time>
      </trkpt>
      <trkpt lat="47.04408" lon="-0.85737">
        <ele>98</ele>
        <time>2023-01-05T10:42:21Z</time>
      </trkpt>
      <trkpt lat="47.04394" lon="-0.85866">
        <ele>92</ele>
        <time>2023-01-05T10:44:20Z</time>
      </trkpt>
      <trkpt lat="47.04411" lon="-0.85879">
        <ele>92</ele>
        <time>2023-01-05T10:44:45Z</time>
      </trkpt>
      <trkpt lat="47.04401" lon="-0.8597">
        <ele>88</ele>
        <time>2023-01-05T10:46:09Z</time>
      </trkpt>
      <trkpt lat="47.04511" lon="-0.8601">
        <ele>85</ele>
        <time>2023-01-05T10:48:40Z</time>
      </trkpt>
      <trkpt lat="47.04583" lon="-0.86094">
        <ele>84</ele>
        <time>2023-01-05T10:50:43Z</time>
      </trkpt>
      <trkpt lat="47.04614" lon="-0.86122">
        <ele>83</ele>
        <time>2023-01-05T10:51:32Z</time>
      </trkpt>
      <trkpt lat="47.04731" lon="-0.8615">
        <ele>84</ele>
        <time>2023-01-05T10:54:10Z</time>
      </trkpt>
      <trkpt lat="47.04756" lon="-0.86208">
        <ele>83</ele>
        <time>2023-01-05T10:55:12Z</time>
      </trkpt>
      <trkpt lat="47.04821" lon="-0.8631">
        <ele>82</ele>
        <time>2023-01-05T10:57:19Z</time>
      </trkpt>
      <trkpt lat="47.04868" lon="-0.86456">
        <ele>79</ele>
        <time>2023-01-05T10:59:46Z</time>
      </trkpt>
      <trkpt lat="47.04812" lon="-0.865">
        <ele>76</ele>
        <time>2023-01-05T11:01:11Z</time>
      </trkpt>
      <trkpt lat="47.04747" lon="-0.86567">
        <ele>75</ele>
        <time>2023-01-05T11:02:57Z</time>
      </trkpt>
      <trkpt lat="47.04725" lon="-0.86575">
        <ele>75</ele>
        <time>2023-01-05T11:03:27Z</time>
      </trkpt>
      <trkpt lat="47.04703" lon="-0.86636">
        <ele>74</ele>
        <time>2023-01-05T11:04:30Z</time>
      </trkpt>
      <trkpt lat="47.04685" lon="-0.86644">
        <ele>74</ele>
        <time>2023-01-05T11:04:55Z</time>
      </trkpt>
      <trkpt lat="47.04669" lon="-0.86661">
        <ele>74</ele>
        <time>2023-01-05T11:05:21Z</time>
      </trkpt>
      <trkpt lat="47.04665" lon="-0.86686">
        <ele>74</ele>
        <time>2023-01-05T11:05:45Z</time>
      </trkpt>
      <trkpt lat="47.04666" lon="-0.8673">
        <ele>74</ele>
        <time>2023-01-05T11:06:25Z</time>
      </trkpt>
      <trkpt lat="47.04657" lon="-0.86752">
        <ele>74</ele>
        <time>2023-01-05T11:06:48Z</time>
      </trkpt>
      <trkpt lat="47.0462" lon="-0.86754">
        <ele>76</ele>
        <time>2023-01-05T11:07:37Z</time>
      </trkpt>
      <trkpt lat="47.04609" lon="-0.86763">
        <ele>76</ele>
        <time>2023-01-05T11:07:54Z</time>
      </trkpt>
      <trkpt lat="47.04637" lon="-0.86849">
        <ele>73</ele>
        <time>2023-01-05T11:09:21Z</time>
      </trkpt>
      <trkpt lat="47.04643" lon="-0.86899">
        <ele>73</ele>
        <time>2023-01-05T11:10:07Z</time>
      </trkpt>
      <trkpt lat="47.04657" lon="-0.86939">
        <ele>72</ele>
        <time>2023-01-05T11:10:48Z</time>
      </trkpt>
      <trkpt lat="47.04661" lon="-0.86987">
        <ele>72</ele>
        <time>2023-01-05T11:11:32Z</time>
      </trkpt>
      <trkpt lat="47.04681" lon="-0.8704">
        <ele>72</ele>
        <time>2023-01-05T11:12:27Z</time>
      </trkpt>
      <trkpt lat="47.04651" lon="-0.87057">
        <ele>73</ele>
        <time>2023-01-05T11:13:10Z</time>
      </trkpt>
      <trkpt lat="47.0462" lon="-0.87048">
        <ele>74</ele>
        <time>2023-01-05T11:13:52Z</time>
      </trkpt>
      <trkpt lat="47.04584" lon="-0.87028">
        <ele>76</ele>
        <time>2023-01-05T11:14:43Z</time>
      </trkpt>
    </trkseg>
  </trk>
</gpx>